createdAt,value
2019-01-05T00:00:15.044Z,0
2019-01-05T00:01:23.120Z,0
2019-01-05T00:02:31.155Z,0
2019-01-05T00:03:39.225Z,0
2019-01-05T00:04:47.276Z,0
2019-01-05T00:05:55.328Z,0
2019-01-05T00:07:03.376Z,0
2019-01-05T00:08:11.446Z,0
2019-01-05T00:09:19.499Z,0
2019-01-05T00:10:27.535Z,0
2019-01-05T00:11:35.613Z,0
2019-01-05T00:12:43.681Z,0
2019-01-05T00:13:51.713Z,0
2019-01-05T00:14:59.779Z,0
2019-01-05T00:16:07.831Z,0
2019-01-05T00:17:15.884Z,0
2019-01-05T00:18:23.958Z,0
2019-01-05T00:19:32.010Z,0
2019-01-05T00:20:40.061Z,0
2019-01-05T00:21:48.149Z,0
2019-01-05T00:22:56.176Z,0
2019-01-05T00:24:04.233Z,0
2019-01-05T00:25:12.297Z,0
2019-01-05T00:26:20.339Z,0
2019-01-05T00:27:28.391Z,0
2019-01-05T00:28:36.467Z,0
2019-01-05T00:29:44.506Z,0
2019-01-05T00:30:52.560Z,0
2019-01-05T00:32:00.597Z,0
2019-01-05T00:33:08.668Z,0
2019-01-05T00:34:16.724Z,0
2019-01-05T00:35:24.794Z,0
2019-01-05T00:36:32.838Z,0
2019-01-05T00:37:40.873Z,0
2019-01-05T00:38:48.941Z,0
2019-01-05T00:39:56.992Z,0
2019-01-05T00:41:05.054Z,0
2019-01-05T00:42:13.113Z,0
2019-01-05T00:43:21.141Z,0
2019-01-05T00:44:29.259Z,0
2019-01-05T00:45:37.294Z,0
2019-01-05T00:46:45.342Z,0
2019-01-05T00:47:53.399Z,0
2019-01-05T00:49:01.438Z,0
2019-01-05T00:50:09.509Z,0
2019-01-05T00:51:17.568Z,0
2019-01-05T00:52:25.612Z,0
2019-01-05T00:53:33.661Z,0
2019-01-05T00:54:41.725Z,0
2019-01-05T00:55:49.782Z,0
2019-01-05T00:56:57.835Z,0
2019-01-05T00:58:05.900Z,0
2019-01-05T00:59:13.946Z,0
2019-01-05T01:00:22.004Z,0
2019-01-05T01:01:30.064Z,0
2019-01-05T01:02:38.127Z,0
2019-01-05T01:03:46.177Z,0
2019-01-05T01:04:54.231Z,0
2019-01-05T01:06:02.282Z,0
2019-01-05T01:07:10.329Z,0
2019-01-05T01:08:18.403Z,0
2019-01-05T01:09:26.452Z,0
2019-01-05T01:10:34.508Z,0
2019-01-05T01:11:42.576Z,0
2019-01-05T01:12:50.640Z,0
2019-01-05T01:13:58.677Z,0
2019-01-05T01:15:06.732Z,0
2019-01-05T01:16:14.785Z,0
2019-01-05T01:17:22.857Z,0
2019-01-05T01:18:30.888Z,0
2019-01-05T01:19:39.002Z,0
2019-01-05T01:20:47.021Z,0
2019-01-05T01:21:55.072Z,0
2019-01-05T01:23:03.153Z,0
2019-01-05T01:24:11.166Z,0
2019-01-05T01:25:19.247Z,0
2019-01-05T01:26:27.296Z,0
2019-01-05T01:27:35.345Z,0
2019-01-05T01:28:43.409Z,0
2019-01-05T01:29:51.453Z,0
2019-01-05T01:30:59.515Z,0
2019-01-05T01:32:07.572Z,0
2019-01-05T01:33:15.649Z,0
2019-01-05T01:34:23.674Z,0
2019-01-05T01:35:31.742Z,0
2019-01-05T01:36:39.789Z,0
2019-01-05T01:37:47.857Z,0
2019-01-05T01:38:55.920Z,0
2019-01-05T01:40:03.957Z,0
2019-01-05T01:41:12.022Z,0
2019-01-05T01:42:20.083Z,0
2019-01-05T01:43:28.123Z,0
2019-01-05T01:44:36.626Z,0
2019-01-05T01:45:44.241Z,0
2019-01-05T01:46:52.290Z,0
2019-01-05T01:48:00.345Z,0
2019-01-05T01:49:08.397Z,0
2019-01-05T01:50:16.471Z,0
2019-01-05T01:51:24.562Z,0
2019-01-05T01:52:32.582Z,0
2019-01-05T01:53:40.620Z,0
2019-01-05T01:54:48.722Z,0
2019-01-05T01:55:56.742Z,0
2019-01-05T01:57:04.789Z,0
2019-01-05T01:58:12.892Z,0
2019-01-05T01:59:20.889Z,0
2019-01-05T02:00:28.963Z,0
2019-01-05T02:01:37.034Z,0
2019-01-05T02:02:45.086Z,0
2019-01-05T02:03:53.143Z,0
2019-01-05T02:05:01.164Z,0
2019-01-05T02:06:09.251Z,0
2019-01-05T02:07:17.303Z,0
2019-01-05T02:08:25.362Z,0
2019-01-05T02:09:33.416Z,0
2019-01-05T02:10:41.446Z,0
2019-01-05T02:11:49.528Z,0
2019-01-05T02:12:57.580Z,0
2019-01-05T02:14:05.637Z,0
2019-01-05T02:15:13.688Z,0
2019-01-05T02:16:21.748Z,0
2019-01-05T02:17:29.901Z,0
2019-01-05T02:18:37.872Z,0
2019-01-05T02:19:45.908Z,0
2019-01-05T02:20:53.962Z,0
2019-01-05T02:22:02.034Z,0
2019-01-05T02:23:10.082Z,0
2019-01-05T02:24:18.148Z,0
2019-01-05T02:25:26.187Z,0
2019-01-05T02:26:35.632Z,0
2019-01-05T02:27:42.317Z,0
2019-01-05T02:28:50.361Z,0
2019-01-05T02:29:58.456Z,0
2019-01-05T02:31:06.483Z,0
2019-01-05T02:32:14.541Z,0
2019-01-05T02:33:22.580Z,0
2019-01-05T02:34:30.631Z,0
2019-01-05T02:35:38.703Z,0
2019-01-05T02:36:46.760Z,0
2019-01-05T02:37:54.806Z,0
2019-01-05T02:39:02.863Z,0
2019-01-05T02:40:10.898Z,0
2019-01-05T02:41:18.967Z,0
2019-01-05T02:42:27.027Z,0
2019-01-05T02:43:35.082Z,0
2019-01-05T02:44:43.152Z,0
2019-01-05T02:45:51.178Z,0
2019-01-05T02:46:59.340Z,0
2019-01-05T02:48:07.322Z,0
2019-01-05T02:49:15.361Z,0
2019-01-05T02:50:23.441Z,0
2019-01-05T02:51:31.464Z,0
2019-01-05T02:52:39.585Z,0
2019-01-05T02:53:47.598Z,0
2019-01-05T02:54:55.648Z,0
2019-01-05T02:56:03.695Z,0
2019-01-05T02:57:11.764Z,0
2019-01-05T02:58:19.823Z,0
2019-01-05T02:59:27.878Z,0
2019-01-05T03:00:35.942Z,0
2019-01-05T03:01:43.991Z,0
2019-01-05T03:02:52.039Z,0
2019-01-05T03:04:00.087Z,0
2019-01-05T03:05:08.163Z,0
2019-01-05T03:06:16.194Z,0
2019-01-05T03:07:24.257Z,0
2019-01-05T03:08:32.312Z,0
2019-01-05T03:09:40.373Z,0
2019-01-05T03:10:48.436Z,0
2019-01-05T03:11:56.487Z,0
2019-01-05T03:13:04.545Z,0
2019-01-05T03:14:12.599Z,0
2019-01-05T03:15:20.622Z,0
2019-01-05T03:16:28.709Z,0
2019-01-05T03:17:36.768Z,0
2019-01-05T03:18:44.815Z,0
2019-01-05T03:19:52.884Z,0
2019-01-05T03:21:00.921Z,0
2019-01-05T03:22:08.994Z,0
2019-01-05T03:23:17.053Z,0
2019-01-05T03:24:25.139Z,0
2019-01-05T03:25:33.150Z,0
2019-01-05T03:26:41.188Z,0
2019-01-05T03:27:49.317Z,0
2019-01-05T03:28:57.326Z,0
2019-01-05T03:30:05.370Z,0
2019-01-05T03:31:13.473Z,0
2019-01-05T03:32:21.514Z,0
2019-01-05T03:33:29.551Z,0
2019-01-05T03:34:37.601Z,0
2019-01-05T03:35:45.653Z,0
2019-01-05T03:36:53.721Z,0
2019-01-05T03:38:01.772Z,0
2019-01-05T03:39:09.826Z,0
2019-01-05T03:40:17.881Z,0
2019-01-05T03:41:25.931Z,0
2019-01-05T03:42:33.984Z,0
2019-01-05T03:43:42.042Z,0
2019-01-05T03:44:50.118Z,0
2019-01-05T03:45:58.167Z,0
2019-01-05T03:47:06.212Z,0
2019-01-05T03:48:14.279Z,0
2019-01-05T03:49:22.336Z,0
2019-01-05T03:50:30.378Z,0
2019-01-05T03:51:38.445Z,0
2019-01-05T03:52:46.491Z,0
2019-01-05T03:53:54.563Z,0
2019-01-05T03:55:02.608Z,0
2019-01-05T03:56:10.637Z,0
2019-01-05T03:57:18.728Z,0
2019-01-05T03:58:26.769Z,0
2019-01-05T03:59:34.824Z,0
2019-01-05T04:00:42.893Z,0
2019-01-05T04:01:50.938Z,0
2019-01-05T04:02:59.008Z,0
2019-01-05T04:04:07.054Z,0
2019-01-05T04:05:15.112Z,0
2019-01-05T04:06:23.212Z,0
2019-01-05T04:07:31.218Z,0
2019-01-05T04:08:39.283Z,0
2019-01-05T04:09:47.367Z,0
2019-01-05T04:10:55.391Z,0
2019-01-05T04:12:03.450Z,0
2019-01-05T04:13:11.544Z,0
2019-01-05T04:14:19.566Z,0
2019-01-05T04:15:27.620Z,0
2019-01-05T04:16:35.666Z,0
2019-01-05T04:17:43.730Z,0
2019-01-05T04:18:51.784Z,0
2019-01-05T04:19:59.836Z,0
2019-01-05T04:21:07.900Z,0
2019-01-05T04:22:15.945Z,0
2019-01-05T04:23:24.003Z,0
2019-01-05T04:24:32.065Z,0
2019-01-05T04:25:40.125Z,0
2019-01-05T04:26:48.175Z,0
2019-01-05T04:27:56.244Z,0
2019-01-05T04:29:04.776Z,0
2019-01-05T04:30:12.331Z,0
2019-01-05T04:31:20.389Z,0
2019-01-05T04:32:28.447Z,0
2019-01-05T04:33:36.520Z,0
2019-01-05T04:34:44.557Z,0
2019-01-05T04:35:52.652Z,0
2019-01-05T04:37:00.663Z,0
2019-01-05T04:38:08.721Z,0
2019-01-05T04:39:16.783Z,0
2019-01-05T04:40:24.836Z,0
2019-01-05T04:41:32.898Z,0
2019-01-05T04:42:40.927Z,0
2019-01-05T04:43:49.021Z,0
2019-01-05T04:44:57.068Z,0
2019-01-05T04:46:05.135Z,0
2019-01-05T04:47:13.177Z,0
2019-01-05T04:48:21.234Z,0
2019-01-05T04:49:29.289Z,0
2019-01-05T04:50:37.354Z,0
2019-01-05T04:51:45.403Z,0
2019-01-05T04:52:53.460Z,0
2019-01-05T04:54:01.517Z,0
2019-01-05T04:55:09.567Z,0
2019-01-05T04:56:17.635Z,0
2019-01-05T04:57:25.680Z,0
2019-01-05T04:58:33.742Z,0
2019-01-05T04:59:41.839Z,0
2019-01-05T05:00:49.839Z,0
2019-01-05T05:01:57.900Z,0
2019-01-05T05:03:05.999Z,0
2019-01-05T05:04:14.018Z,0
2019-01-05T05:05:22.069Z,0
2019-01-05T05:06:30.129Z,0
2019-01-05T05:07:38.183Z,0
2019-01-05T05:08:46.255Z,0
2019-01-05T05:09:54.289Z,0
2019-01-05T05:11:02.340Z,0
2019-01-05T05:12:10.404Z,0
2019-01-05T05:13:18.631Z,0
2019-01-05T05:14:26.518Z,0
2019-01-05T05:15:34.604Z,0
2019-01-05T05:16:42.633Z,0
2019-01-05T05:17:50.653Z,0
2019-01-05T05:18:58.817Z,0
2019-01-05T05:20:06.806Z,0
2019-01-05T05:21:14.864Z,0
2019-01-05T05:22:22.919Z,0
2019-01-05T05:23:30.933Z,0
2019-01-05T05:24:39.020Z,0
2019-01-05T05:25:47.067Z,0
2019-01-05T05:26:55.141Z,0
2019-01-05T05:28:03.181Z,0
2019-01-05T05:29:11.235Z,0
2019-01-05T05:30:19.306Z,0
2019-01-05T05:31:27.365Z,0
2019-01-05T05:32:35.419Z,0
2019-01-05T05:33:43.463Z,0
2019-01-05T05:34:51.515Z,0
2019-01-05T05:35:59.589Z,0
2019-01-05T05:37:07.640Z,0
2019-01-05T05:38:15.704Z,0
2019-01-05T05:39:23.745Z,0
2019-01-05T05:40:31.802Z,0
2019-01-05T05:41:39.898Z,0
2019-01-05T05:42:47.912Z,0
2019-01-05T05:43:55.979Z,0
2019-01-05T05:45:04.072Z,0
2019-01-05T05:46:12.083Z,0
2019-01-05T05:47:20.145Z,0
2019-01-05T05:48:28.182Z,0
2019-01-05T05:49:36.254Z,0
2019-01-05T05:50:44.308Z,0
2019-01-05T05:51:52.360Z,0
2019-01-05T05:53:00.410Z,0
2019-01-05T05:54:08.459Z,0
2019-01-05T05:55:16.527Z,0
2019-01-05T05:56:24.577Z,0
2019-01-05T05:57:32.636Z,0
2019-01-05T05:58:40.665Z,0
2019-01-05T05:59:48.755Z,0
2019-01-05T06:00:56.807Z,0
2019-01-05T06:02:04.864Z,0
2019-01-05T06:03:12.917Z,0
2019-01-05T06:04:20.945Z,0
2019-01-05T06:05:29.038Z,0
2019-01-05T06:06:37.076Z,0
2019-01-05T06:07:45.150Z,0
2019-01-05T06:08:53.211Z,0
2019-01-05T06:10:01.236Z,0
2019-01-05T06:11:09.304Z,0
2019-01-05T06:12:17.375Z,0
2019-01-05T06:13:25.413Z,0
2019-01-05T06:14:33.484Z,0
2019-01-05T06:15:41.523Z,0
2019-01-05T06:16:49.582Z,0
2019-01-05T06:17:57.642Z,0
2019-01-05T06:19:05.709Z,0
2019-01-05T06:20:13.763Z,0
2019-01-05T06:21:21.804Z,0
2019-01-05T06:22:29.870Z,0
2019-01-05T06:23:37.956Z,0
2019-01-05T06:24:45.977Z,0
2019-01-05T06:25:54.039Z,0
2019-01-05T06:27:02.131Z,0
2019-01-05T06:28:10.140Z,0
2019-01-05T06:29:18.200Z,0
2019-01-05T06:30:26.253Z,0
2019-01-05T06:31:34.318Z,0
2019-01-05T06:32:42.373Z,0
2019-01-05T06:33:50.424Z,0
2019-01-05T06:34:58.492Z,0
2019-01-05T06:36:06.541Z,0
2019-01-05T06:37:14.590Z,0
2019-01-05T06:38:22.634Z,0
2019-01-05T06:39:30.804Z,0
2019-01-05T06:40:38.761Z,0
2019-01-05T06:41:46.809Z,0
2019-01-05T06:42:54.876Z,0
2019-01-05T06:44:02.923Z,0
2019-01-05T06:45:11.192Z,0
2019-01-05T06:46:19.051Z,0
2019-01-05T06:47:27.116Z,4
2019-01-05T06:48:35.157Z,4
2019-01-05T06:49:43.206Z,4
2019-01-05T06:50:51.244Z,4
2019-01-05T06:51:59.320Z,4
2019-01-05T06:53:07.379Z,4
2019-01-05T06:54:15.439Z,8
2019-01-05T06:55:23.476Z,8
2019-01-05T06:56:31.537Z,8
2019-01-05T06:57:39.615Z,16
2019-01-05T06:58:48.001Z,16
2019-01-05T06:59:55.738Z,16
2019-01-05T07:01:03.767Z,24
2019-01-05T07:02:11.884Z,28
2019-01-05T07:03:19.877Z,32
2019-01-05T07:04:27.945Z,40
2019-01-05T07:05:35.986Z,40
2019-01-05T07:06:44.042Z,48
2019-01-05T07:07:52.127Z,52
2019-01-05T07:09:00.364Z,60
2019-01-05T07:10:08.219Z,72
2019-01-05T07:11:16.711Z,76
2019-01-05T07:12:24.320Z,84
2019-01-05T07:13:32.401Z,92
2019-01-05T07:14:40.440Z,100
2019-01-05T07:15:48.499Z,104
2019-01-05T07:16:56.546Z,112
2019-01-05T07:18:04.930Z,116
2019-01-05T07:19:12.665Z,124
2019-01-05T07:20:20.741Z,128
2019-01-05T07:21:28.784Z,128
2019-01-05T07:22:36.824Z,132
2019-01-05T07:23:44.875Z,132
2019-01-05T07:24:52.941Z,140
2019-01-05T07:26:00.963Z,148
2019-01-05T07:27:09.053Z,156
2019-01-05T07:28:17.122Z,180
2019-01-05T07:29:25.175Z,188
2019-01-05T07:30:33.229Z,200
2019-01-05T07:31:41.268Z,220
2019-01-05T07:32:49.332Z,232
2019-01-05T07:33:57.387Z,264
2019-01-05T07:35:05.511Z,284
2019-01-05T07:36:13.504Z,304
2019-01-05T07:37:21.560Z,304
2019-01-05T07:38:29.611Z,324
2019-01-05T07:39:37.664Z,336
2019-01-05T07:40:45.722Z,328
2019-01-05T07:41:53.771Z,340
2019-01-05T07:43:02.378Z,372
2019-01-05T07:44:09.895Z,408
2019-01-05T07:45:17.945Z,456
2019-01-05T07:46:25.998Z,476
2019-01-05T07:47:34.704Z,504
2019-01-05T07:48:42.210Z,492
2019-01-05T07:49:50.681Z,568
2019-01-05T07:50:58.223Z,556
2019-01-05T07:52:06.320Z,604
2019-01-05T07:53:14.351Z,584
2019-01-05T07:54:22.393Z,628
2019-01-05T07:55:30.458Z,636
2019-01-05T07:56:38.971Z,620
2019-01-05T07:57:46.824Z,564
2019-01-05T07:58:54.615Z,564
2019-01-05T08:00:02.679Z,548
2019-01-05T08:01:10.712Z,504
2019-01-05T08:02:18.784Z,508
2019-01-05T08:03:26.843Z,532
2019-01-05T08:04:34.892Z,556
2019-01-05T08:05:42.941Z,588
2019-01-05T08:06:51.030Z,640
2019-01-05T08:07:59.056Z,712
2019-01-05T08:09:07.115Z,748
2019-01-05T08:10:15.204Z,744
2019-01-05T08:11:23.232Z,692
2019-01-05T08:12:31.362Z,704
2019-01-05T08:13:39.351Z,668
2019-01-05T08:14:47.400Z,652
2019-01-05T08:15:55.469Z,664
2019-01-05T08:17:03.518Z,700
2019-01-05T08:18:11.571Z,712
2019-01-05T08:19:19.628Z,756
2019-01-05T08:20:27.669Z,812
2019-01-05T08:21:35.725Z,864
2019-01-05T08:22:43.778Z,980
2019-01-05T08:23:51.846Z,1128
2019-01-05T08:25:00.932Z,1344
2019-01-05T08:26:08.583Z,1492
2019-01-05T08:27:16.726Z,1608
2019-01-05T08:28:24.117Z,1612
2019-01-05T08:29:32.137Z,1676
2019-01-05T08:30:40.182Z,1780
2019-01-05T08:31:48.236Z,1676
2019-01-05T08:32:56.314Z,1496
2019-01-05T08:34:04.358Z,1436
2019-01-05T08:35:12.422Z,1324
2019-01-05T08:36:20.462Z,1264
2019-01-05T08:37:28.556Z,1124
2019-01-05T08:38:36.592Z,1096
2019-01-05T08:39:44.631Z,1148
2019-01-05T08:40:52.878Z,1192
2019-01-05T08:42:00.753Z,1280
2019-01-05T08:43:08.998Z,1244
2019-01-05T08:44:16.873Z,1332
2019-01-05T08:45:25.534Z,1472
2019-01-05T08:46:33.071Z,1560
2019-01-05T08:47:41.012Z,1696
2019-01-05T08:48:49.543Z,1716
2019-01-05T08:49:57.141Z,1656
2019-01-05T08:51:05.183Z,1488
2019-01-05T08:52:13.276Z,1392
2019-01-05T08:53:21.285Z,1396
2019-01-05T08:54:29.372Z,1380
2019-01-05T08:55:37.423Z,1344
2019-01-05T08:56:45.468Z,1456
2019-01-05T08:57:53.552Z,1564
2019-01-05T08:59:01.718Z,1680
2019-01-05T09:00:10.271Z,1812
2019-01-05T09:01:17.909Z,1884
2019-01-05T09:02:26.023Z,2020
2019-01-05T09:03:33.869Z,1944
2019-01-05T09:04:41.875Z,1992
2019-01-05T09:05:49.931Z,1908
2019-01-05T09:06:58.712Z,1868
2019-01-05T09:08:06.054Z,1928
2019-01-05T09:09:14.091Z,2008
2019-01-05T09:10:22.219Z,2060
2019-01-05T09:11:30.316Z,2156
2019-01-05T09:12:38.262Z,2212
2019-01-05T09:13:46.518Z,2320
2019-01-05T09:14:54.848Z,2324
2019-01-05T09:16:02.453Z,2368
2019-01-05T09:17:10.477Z,2400
2019-01-05T09:18:18.537Z,2256
2019-01-05T09:19:27.143Z,2452
2019-01-05T09:20:34.683Z,2492
2019-01-05T09:21:42.699Z,2496
2019-01-05T09:22:50.756Z,2636
2019-01-05T09:23:59.079Z,2796
2019-01-05T09:25:06.875Z,2688
2019-01-05T09:26:14.926Z,2644
2019-01-05T09:27:22.986Z,2492
2019-01-05T09:28:31.025Z,2340
2019-01-05T09:29:39.094Z,2328
2019-01-05T09:30:47.171Z,2500
2019-01-05T09:31:55.229Z,2672
2019-01-05T09:33:03.266Z,2700
2019-01-05T09:34:11.298Z,2680
2019-01-05T09:35:19.378Z,2676
2019-01-05T09:36:27.415Z,2536
2019-01-05T09:37:36.472Z,2524
2019-01-05T09:38:43.560Z,2724
2019-01-05T09:39:51.696Z,2820
2019-01-05T09:40:59.659Z,2808
2019-01-05T09:42:07.742Z,2836
2019-01-05T09:43:16.429Z,3284
2019-01-05T09:44:23.837Z,3572
2019-01-05T09:45:35.025Z,3476
2019-01-05T09:46:40.534Z,3456
2019-01-05T09:47:47.995Z,3508
2019-01-05T09:48:56.048Z,3456
2019-01-05T09:50:04.109Z,3224
2019-01-05T09:51:12.166Z,3160
2019-01-05T09:52:20.212Z,3052
2019-01-05T09:53:28.283Z,3040
2019-01-05T09:54:36.338Z,2692
2019-01-05T09:55:44.405Z,2416
2019-01-05T09:56:52.437Z,2416
2019-01-05T09:58:00.591Z,2260
2019-01-05T09:59:08.578Z,2232
2019-01-05T10:00:16.618Z,2284
2019-01-05T10:01:24.661Z,2316
2019-01-05T10:02:32.747Z,2496
2019-01-05T10:03:40.762Z,2672
2019-01-05T10:04:48.899Z,2672
2019-01-05T10:05:56.940Z,2728
2019-01-05T10:07:04.960Z,2760
2019-01-05T10:08:13.018Z,2840
2019-01-05T10:09:21.043Z,2872
2019-01-05T10:10:29.134Z,2804
2019-01-05T10:11:37.189Z,2768
2019-01-05T10:12:45.279Z,2880
2019-01-05T10:13:53.333Z,2776
2019-01-05T10:15:01.324Z,2796
2019-01-05T10:16:09.863Z,3112
2019-01-05T10:17:17.446Z,3420
2019-01-05T10:18:25.520Z,3384
2019-01-05T10:19:33.572Z,3548
2019-01-05T10:20:41.637Z,3508
2019-01-05T10:21:49.698Z,3376
2019-01-05T10:22:57.757Z,3580
2019-01-05T10:24:05.803Z,3736
2019-01-05T10:25:13.866Z,3796
2019-01-05T10:26:22.069Z,3832
2019-01-05T10:27:29.987Z,4080
2019-01-05T10:28:38.044Z,4368
2019-01-05T10:29:46.108Z,4376
2019-01-05T10:30:54.148Z,4196
2019-01-05T10:32:02.212Z,3940
2019-01-05T10:33:10.249Z,3572
2019-01-05T10:34:18.328Z,3224
2019-01-05T10:35:26.383Z,3096
2019-01-05T10:36:34.448Z,2976
2019-01-05T10:37:42.482Z,2920
2019-01-05T10:38:50.533Z,2860
2019-01-05T10:39:58.603Z,2760
2019-01-05T10:41:06.646Z,2932
2019-01-05T10:42:14.719Z,3156
2019-01-05T10:43:22.768Z,3288
2019-01-05T10:44:30.866Z,3320
2019-01-05T10:45:38.892Z,3652
2019-01-05T10:46:46.947Z,3740
2019-01-05T10:47:55.009Z,3780
2019-01-05T10:49:03.050Z,3716
2019-01-05T10:50:11.073Z,3744
2019-01-05T10:51:19.152Z,3764
2019-01-05T10:52:27.235Z,4024
2019-01-05T10:53:35.280Z,4268
2019-01-05T10:54:43.343Z,4332
2019-01-05T10:55:51.360Z,4400
2019-01-05T10:56:59.475Z,4540
2019-01-05T10:58:07.504Z,4360
2019-01-05T10:59:15.561Z,4148
2019-01-05T11:00:23.597Z,4012
2019-01-05T11:01:31.667Z,3916
2019-01-05T11:02:39.723Z,3892
2019-01-05T11:03:47.780Z,4048
2019-01-05T11:04:55.840Z,4156
2019-01-05T11:06:04.165Z,4484
2019-01-05T11:07:11.950Z,4648
2019-01-05T11:08:21.369Z,5044
2019-01-05T11:09:28.117Z,5628
2019-01-05T11:10:36.147Z,6220
2019-01-05T11:11:44.188Z,6692
2019-01-05T11:12:52.250Z,6740
2019-01-05T11:14:00.286Z,6516
2019-01-05T11:15:08.376Z,6120
2019-01-05T11:16:16.417Z,5752
2019-01-05T11:17:24.466Z,5440
2019-01-05T11:18:32.525Z,5252
2019-01-05T11:19:40.586Z,5116
2019-01-05T11:20:48.794Z,5108
2019-01-05T11:21:56.759Z,4784
2019-01-05T11:23:04.743Z,4768
2019-01-05T11:24:13.231Z,4472
2019-01-05T11:25:20.922Z,4420
2019-01-05T11:26:28.945Z,4628
2019-01-05T11:27:37.020Z,4676
2019-01-05T11:28:45.042Z,4864
2019-01-05T11:29:53.098Z,4852
2019-01-05T11:31:01.152Z,5044
2019-01-05T11:32:09.220Z,4932
2019-01-05T11:33:17.583Z,5044
2019-01-05T11:34:25.332Z,4984
2019-01-05T11:35:33.383Z,4880
2019-01-05T11:36:41.439Z,4828
2019-01-05T11:37:49.485Z,4744
2019-01-05T11:38:57.559Z,4472
2019-01-05T11:40:05.613Z,4148
2019-01-05T11:41:13.674Z,3984
2019-01-05T11:42:21.745Z,4008
2019-01-05T11:43:29.771Z,4116
2019-01-05T11:44:37.859Z,4092
2019-01-05T11:45:45.918Z,4064
2019-01-05T11:46:54.243Z,3848
2019-01-05T11:48:02.021Z,3656
2019-01-05T11:49:10.048Z,3436
2019-01-05T11:50:18.152Z,3400
2019-01-05T11:51:26.171Z,3564
2019-01-05T11:52:34.241Z,3704
2019-01-05T11:53:42.300Z,3908
2019-01-05T11:54:50.340Z,4332
2019-01-05T11:55:58.413Z,4460
2019-01-05T11:57:07.128Z,4724
2019-01-05T11:58:14.525Z,4712
2019-01-05T11:59:22.589Z,4676
2019-01-05T12:00:30.786Z,4748
2019-01-05T12:01:38.707Z,4628
2019-01-05T12:02:46.834Z,4636
2019-01-05T12:03:54.808Z,4624
2019-01-05T12:05:02.911Z,4664
2019-01-05T12:06:10.893Z,4756
2019-01-05T12:07:18.979Z,4704
2019-01-05T12:08:27.028Z,4708
2019-01-05T12:09:35.088Z,4816
2019-01-05T12:10:43.165Z,4960
2019-01-05T12:11:51.198Z,5080
2019-01-05T12:12:59.263Z,5056
2019-01-05T12:14:07.373Z,5108
2019-01-05T12:15:15.369Z,5128
2019-01-05T12:16:23.471Z,5040
2019-01-05T12:17:31.466Z,5020
2019-01-05T12:18:39.569Z,5100
2019-01-05T12:19:47.647Z,5080
2019-01-05T12:20:55.659Z,5332
2019-01-05T12:22:03.716Z,5504
2019-01-05T12:23:11.768Z,5624
2019-01-05T12:24:19.835Z,5704
2019-01-05T12:25:27.867Z,5708
2019-01-05T12:26:35.967Z,5828
2019-01-05T12:27:43.997Z,5904
2019-01-05T12:28:52.039Z,5848
2019-01-05T12:30:00.161Z,5940
2019-01-05T12:31:08.178Z,6044
2019-01-05T12:32:16.233Z,6168
2019-01-05T12:33:24.283Z,6296
2019-01-05T12:34:32.348Z,6320
2019-01-05T12:35:40.429Z,6204
2019-01-05T12:36:48.464Z,6072
2019-01-05T12:37:56.509Z,6000
2019-01-05T12:39:04.605Z,5808
2019-01-05T12:40:12.628Z,5548
2019-01-05T12:41:20.701Z,5296
2019-01-05T12:42:28.745Z,5168
2019-01-05T12:43:36.810Z,4936
2019-01-05T12:44:44.872Z,4604
2019-01-05T12:45:52.931Z,4456
2019-01-05T12:47:00.994Z,4436
2019-01-05T12:48:09.031Z,4188
2019-01-05T12:49:17.090Z,4276
2019-01-05T12:50:25.146Z,4264
2019-01-05T12:51:33.220Z,4196
2019-01-05T12:52:41.237Z,4128
2019-01-05T12:53:49.327Z,4020
2019-01-05T12:54:57.375Z,3824
2019-01-05T12:56:05.447Z,3808
2019-01-05T12:57:13.487Z,3808
2019-01-05T12:58:21.553Z,3744
2019-01-05T12:59:29.595Z,3584
2019-01-05T13:00:37.664Z,3556
2019-01-05T13:01:45.729Z,3664
2019-01-05T13:02:53.783Z,3852
2019-01-05T13:04:01.818Z,3912
2019-01-05T13:05:09.894Z,4016
2019-01-05T13:06:17.943Z,4088
2019-01-05T13:07:26.033Z,3996
2019-01-05T13:08:34.054Z,3940
2019-01-05T13:09:42.125Z,4016
2019-01-05T13:10:50.186Z,4108
2019-01-05T13:11:58.240Z,4016
2019-01-05T13:13:06.288Z,4068
2019-01-05T13:14:14.383Z,4096
2019-01-05T13:15:22.468Z,4024
2019-01-05T13:16:30.464Z,3872
2019-01-05T13:17:38.564Z,3720
2019-01-05T13:18:46.587Z,3584
2019-01-05T13:19:54.644Z,3692
2019-01-05T13:21:02.684Z,3840
2019-01-05T13:22:10.724Z,3976
2019-01-05T13:23:18.811Z,4320
2019-01-05T13:24:26.914Z,4388
2019-01-05T13:25:34.920Z,4204
2019-01-05T13:26:42.999Z,3916
2019-01-05T13:27:51.000Z,3868
2019-01-05T13:28:59.114Z,3836
2019-01-05T13:30:07.158Z,3916
2019-01-05T13:31:15.225Z,4016
2019-01-05T13:32:23.260Z,3944
2019-01-05T13:33:31.305Z,3780
2019-01-05T13:34:39.386Z,3688
2019-01-05T13:35:47.428Z,3648
2019-01-05T13:36:55.490Z,3700
2019-01-05T13:38:03.543Z,3864
2019-01-05T13:39:11.650Z,4268
2019-01-05T13:40:19.678Z,4716
2019-01-05T13:41:27.707Z,4768
2019-01-05T13:42:35.817Z,4716
2019-01-05T13:43:43.837Z,4532
2019-01-05T13:44:51.892Z,4488
2019-01-05T13:45:59.961Z,4420
2019-01-05T13:47:08.013Z,4440
2019-01-05T13:48:16.156Z,4508
2019-01-05T13:49:24.131Z,4648
2019-01-05T13:50:32.172Z,4628
2019-01-05T13:51:40.231Z,4468
2019-01-05T13:52:48.280Z,4160
2019-01-05T13:53:56.346Z,4116
2019-01-05T13:55:04.401Z,4260
2019-01-05T13:56:12.448Z,4436
2019-01-05T13:57:20.778Z,4520
2019-01-05T13:58:28.552Z,4584
2019-01-05T13:59:36.638Z,4604
2019-01-05T14:00:44.711Z,4668
2019-01-05T14:01:52.757Z,4836
2019-01-05T14:03:00.771Z,5132
2019-01-05T14:04:08.851Z,5204
2019-01-05T14:05:16.905Z,4924
2019-01-05T14:06:24.973Z,4600
2019-01-05T14:07:33.019Z,4504
2019-01-05T14:08:41.070Z,4580
2019-01-05T14:09:49.168Z,4556
2019-01-05T14:10:57.211Z,4360
2019-01-05T14:12:05.266Z,4156
2019-01-05T14:13:13.330Z,3992
2019-01-05T14:14:21.366Z,3892
2019-01-05T14:15:29.417Z,4036
2019-01-05T14:16:37.500Z,4132
2019-01-05T14:17:45.548Z,4040
2019-01-05T14:18:53.625Z,3896
2019-01-05T14:20:01.660Z,3772
2019-01-05T14:21:09.727Z,3708
2019-01-05T14:22:17.775Z,3468
2019-01-05T14:23:25.829Z,3064
2019-01-05T14:24:33.893Z,2864
2019-01-05T14:25:41.945Z,2836
2019-01-05T14:26:49.983Z,2752
2019-01-05T14:27:58.045Z,2708
2019-01-05T14:29:06.089Z,2500
2019-01-05T14:30:14.172Z,2536
2019-01-05T14:31:22.226Z,2496
2019-01-05T14:32:30.282Z,2376
2019-01-05T14:33:38.334Z,2312
2019-01-05T14:34:46.380Z,2076
2019-01-05T14:35:54.450Z,1956
2019-01-05T14:37:02.494Z,1964
2019-01-05T14:38:10.547Z,1868
2019-01-05T14:39:19.741Z,1772
2019-01-05T14:40:26.691Z,1764
2019-01-05T14:41:34.746Z,1856
2019-01-05T14:42:42.830Z,1848
2019-01-05T14:43:50.816Z,1964
2019-01-05T14:44:58.927Z,2092
2019-01-05T14:46:06.952Z,1928
2019-01-05T14:47:15.011Z,1800
2019-01-05T14:48:23.071Z,1708
2019-01-05T14:49:31.111Z,1660
2019-01-05T14:50:39.192Z,1768
2019-01-05T14:51:47.268Z,1640
2019-01-05T14:52:55.297Z,1564
2019-01-05T14:54:03.371Z,1508
2019-01-05T14:55:11.413Z,1432
2019-01-05T14:56:19.476Z,1524
2019-01-05T14:57:27.548Z,1608
2019-01-05T14:58:35.611Z,1700
2019-01-05T14:59:45.287Z,1792
2019-01-05T15:00:51.771Z,1816
2019-01-05T15:01:59.770Z,1772
2019-01-05T15:03:07.816Z,1784
2019-01-05T15:04:15.917Z,1704
2019-01-05T15:05:23.934Z,1660
2019-01-05T15:06:31.983Z,1572
2019-01-05T15:07:40.049Z,1532
2019-01-05T15:08:48.108Z,1460
2019-01-05T15:09:56.151Z,1508
2019-01-05T15:11:04.229Z,1544
2019-01-05T15:12:12.322Z,1392
2019-01-05T15:13:20.324Z,1388
2019-01-05T15:14:28.389Z,1248
2019-01-05T15:15:36.426Z,1096
2019-01-05T15:16:45.046Z,1080
2019-01-05T15:17:52.557Z,1088
2019-01-05T15:19:00.602Z,996
2019-01-05T15:20:08.709Z,932
2019-01-05T15:21:16.725Z,796
2019-01-05T15:22:24.772Z,736
2019-01-05T15:23:32.877Z,636
2019-01-05T15:24:40.894Z,592
2019-01-05T15:25:48.946Z,520
2019-01-05T15:26:57.007Z,508
2019-01-05T15:28:05.057Z,492
2019-01-05T15:29:13.128Z,448
2019-01-05T15:30:21.149Z,404
2019-01-05T15:31:29.238Z,376
2019-01-05T15:32:37.298Z,340
2019-01-05T15:33:45.348Z,324
2019-01-05T15:34:53.396Z,304
2019-01-05T15:36:01.458Z,272
2019-01-05T15:37:09.529Z,260
2019-01-05T15:38:17.569Z,240
2019-01-05T15:39:25.624Z,220
2019-01-05T15:40:33.693Z,216
2019-01-05T15:41:41.760Z,200
2019-01-05T15:42:49.788Z,180
2019-01-05T15:43:57.843Z,164
2019-01-05T15:45:05.954Z,148
2019-01-05T15:46:13.988Z,140
2019-01-05T15:47:22.028Z,132
2019-01-05T15:48:30.091Z,120
2019-01-05T15:49:38.153Z,108
2019-01-05T15:50:46.206Z,96
2019-01-05T15:51:54.254Z,80